Time;durP1;ratioP1;P1;durP2;ratioP2;P2;SDS_P1;SDS_P2;PMS_P1;PMS_P2;Temp;Humidity;BMP_temperature;BMP_pressure;BME280_temperature;BME280_humidity;BME280_pressure;Samples;Min_cycle;Max_cycle;Signal;HPM_P1;HPM_P2
2022/07/30 00:02:02;;;;;;;4.47;2.47;;;;;;;23.87;50.09;99215.03;4886263;29;20040;-93
2022/07/30 00:04:27;;;;;;;4.45;2.80;;;;;;;23.85;50.18;99217.34;4887129;29;20021;-94
2022/07/30 00:06:53;;;;;;;3.53;2.80;;;;;;;23.86;49.89;99222.47;4885589;29;20043;-94
2022/07/30 00:09:18;;;;;;;5.25;2.80;;;;;;;23.73;50.10;99205.28;4886316;29;20407;-93
2022/07/30 00:11:44;;;;;;;6.65;3.15;;;;;;;23.59;50.20;99203.06;4885716;29;20039;-94
2022/07/30 00:14:11;;;;;;;5.03;3.22;;;;;;;23.66;50.27;99212.59;4887261;29;20032;-94
2022/07/30 00:16:37;;;;;;;6.88;2.90;;;;;;;23.68;50.95;99224.84;4885885;29;20024;-94
2022/07/30 00:19:02;;;;;;;6.03;2.90;;;;;;;23.60;50.94;99229.38;4886222;29;20115;-91
2022/07/30 00:21:28;;;;;;;4.50;3.08;;;;;;;23.54;51.04;99236.31;4886026;29;20111;-93
2022/07/30 00:23:53;;;;;;;6.57;3.10;;;;;;;23.58;51.22;99250.13;4886688;29;20060;-94
2022/07/30 00:26:19;;;;;;;5.10;3.30;;;;;;;23.54;50.63;99230.03;4886379;29;20036;-94
2022/07/30 00:28:45;;;;;;;9.23;3.38;;;;;;;23.52;50.93;99224.88;4870201;29;20472;-94
2022/07/30 00:31:10;;;;;;;4.85;2.92;;;;;;;23.40;51.06;99214.00;4886960;29;20039;-94
2022/07/30 00:33:36;;;;;;;4.65;3.13;;;;;;;23.60;51.51;99234.88;4885189;29;20103;-95
2022/07/30 00:36:02;;;;;;;5.20;3.22;;;;;;;23.39;52.09;99210.47;4885202;29;20039;-94
2022/07/30 00:38:27;;;;;;;3.60;2.78;;;;;;;23.38;51.48;99225.34;4886378;29;20534;-95
2022/07/30 00:40:53;;;;;;;5.80;2.97;;;;;;;23.43;51.46;99237.22;4886364;29;20013;-94
2022/07/30 00:43:18;;;;;;;3.88;3.10;;;;;;;23.33;51.67;99214.66;4885312;29;20036;-94
2022/07/30 00:45:44;;;;;;;5.57;3.28;;;;;;;23.45;51.78;99226.66;4869909;29;20028;-94
2022/07/30 00:48:10;;;;;;;3.75;2.90;;;;;;;23.13;52.05;99202.78;4885457;29;20068;-94
2022/07/30 00:50:37;;;;;;;3.63;2.72;;;;;;;23.16;51.60;99218.59;4854376;29;20028;-95
2022/07/30 00:53:03;;;;;;;6.07;3.30;;;;;;;23.17;52.02;99222.91;4853794;29;20040;-94
2022/07/30 00:55:28;;;;;;;5.20;3.10;;;;;;;23.06;52.57;99204.59;4885336;29;20041;-95
2022/07/30 00:57:55;;;;;;;5.13;3.10;;;;;;;23.23;52.30;99214.41;4885403;29;20056;-94
2022/07/30 01:00:20;;;;;;;5.20;3.20;;;;;;;23.26;52.51;99219.16;4885202;29;20036;-94
2022/07/30 01:02:46;;;;;;;4.32;3.10;;;;;;;23.40;51.50;99214.78;4884804;29;20035;-96
2022/07/30 01:05:12;;;;;;;3.80;2.92;;;;;;;23.51;51.19;99206.00;4885828;29;20516;-94
2022/07/30 01:07:37;;;;;;;4.25;2.90;;;;;;;23.44;52.69;99217.63;4884014;29;20047;-94
2022/07/30 01:10:04;;;;;;;4.68;2.70;;;;;;;23.16;52.51;99193.06;4884814;29;20040;-94
2022/07/30 01:12:29;;;;;;;3.65;2.78;;;;;;;23.12;52.44;99203.97;4853465;29;20029;-94
2022/07/30 01:14:56;;;;;;;4.72;3.03;;;;;;;23.07;52.67;99212.47;4884657;29;20029;-95
2022/07/30 01:17:22;;;;;;;4.43;2.85;;;;;;;23.07;52.68;99212.47;4853783;29;20032;-93
2022/07/30 01:19:47;;;;;;;4.32;2.88;;;;;;;23.07;52.70;99212.47;4855251;29;20160;-94
2022/07/30 01:22:25;;;;;;;6.95;3.10;;;;;;;23.12;52.65;99228.69;4885642;29;20403;-93
2022/07/30 01:25:03;;;;;;;5.75;3.00;;;;;;;23.22;52.51;99221.03;4886028;29;20510;-94
2022/07/30 01:27:47;;;;;;;4.88;3.28;;;;;;;23.22;52.53;99221.81;4886086;29;20033;-95
2022/07/30 01:30:14;;;;;;;3.53;3.00;;;;;;;23.08;53.28;99216.03;4857393;29;20029;-94
2022/07/30 01:32:41;;;;;;;3.13;2.70;;;;;;;23.07;52.91;99212.47;4854020;29;20028;-95
2022/07/30 01:35:08;;;;;;;4.40;3.30;;;;;;;22.95;53.01;99198.78;4854074;29;20415;-95
2022/07/30 01:37:33;;;;;;;4.32;2.97;;;;;;;22.95;52.82;99213.34;4855054;29;20103;-95
2022/07/30 01:39:59;;;;;;;8.35;3.25;;;;;;;22.92;53.61;99219.53;4855152;29;20017;-95
2022/07/30 01:42:25;;;;;;;5.25;3.03;;;;;;;22.75;53.28;99192.44;4869788;29;20117;-95
2022/07/30 01:44:50;;;;;;;3.85;2.85;;;;;;;22.68;53.95;99192.25;4854339;29;20028;-95
2022/07/30 01:47:17;;;;;;;5.28;2.67;;;;;;;22.60;54.27;99196.78;4884840;29;20024;-96
2022/07/30 01:49:45;;;;;;;4.03;2.90;;;;;;;22.61;54.04;99212.09;4870202;29;20048;-94
2022/07/30 01:52:10;;;;;;;4.88;3.00;;;;;;;22.53;54.54;99200.13;4854468;29;20036;-94
2022/07/30 01:54:36;;;;;;;3.50;2.78;;;;;;;22.60;53.73;99210.50;4884467;29;20092;-93
2022/07/30 01:57:01;;;;;;;9.30;3.47;;;;;;;22.60;53.88;99194.84;4886185;29;20056;-93
2022/07/30 01:59:27;;;;;;;4.55;2.95;;;;;;;22.58;54.74;99205.38;4884788;29;20032;-95
2022/07/30 02:01:52;;;;;;;4.45;2.85;;;;;;;22.50;53.50;99183.59;4855014;29;20024;-94
2022/07/30 02:04:18;;;;;;;3.85;2.92;;;;;;;22.72;53.32;99188.47;4885180;29;20032;-95
2022/07/30 02:06:46;;;;;;;3.28;2.65;;;;;;;22.65;53.49;99198.47;4885280;29;20036;-95
2022/07/30 02:09:14;;;;;;;5.03;3.00;;;;;;;22.71;53.16;99194.31;4854907;29;20043;-94
2022/07/30 02:14:46;;;;;;;4.82;2.97;;;;;;;22.62;52.94;99182.69;4874553;29;20043;-93
2022/07/30 02:17:13;;;;;;;3.97;2.97;;;;;;;22.58;53.70;99188.13;4868773;29;20060;-93
2022/07/30 02:19:40;;;;;;;3.65;2.90;;;;;;;22.41;53.45;99172.75;4869400;29;20028;-94
2022/07/30 02:22:10;;;;;;;5.60;3.13;;;;;;;22.55;52.91;99166.84;4885327;29;20068;-95
2022/07/30 02:24:36;;;;;;;4.15;2.60;;;;;;;22.72;53.54;99179.41;4854723;29;20020;-95
2022/07/30 02:27:15;;;;;;;4.13;3.13;;;;;;;22.60;54.12;99183.06;4853833;29;20036;-95
2022/07/30 02:29:41;;;;;;;3.92;3.22;;;;;;;22.60;54.27;99194.84;4853277;29;20025;-94
2022/07/30 02:32:09;;;;;;;5.18;2.92;;;;;;;22.42;55.15;99182.59;4854498;29;20072;-94
2022/07/30 02:34:36;;;;;;;4.20;2.88;;;;;;;22.47;55.59;99190.56;4853316;29;20028;-94
2022/07/30 02:37:01;;;;;;;5.97;3.35;;;;;;;22.39;54.71;99183.28;4870082;29;20488;-94
2022/07/30 02:39:27;;;;;;;5.15;3.50;;;;;;;22.26;55.27;99168.84;4852772;29;20036;-95
2022/07/30 02:41:54;;;;;;;5.97;3.08;;;;;;;22.13;55.48;99173.59;4853787;29;20029;-93
2022/07/30 02:44:20;;;;;;;3.67;2.80;;;;;;;22.07;55.73;99179.69;4869762;29;20027;-94
2022/07/30 02:46:46;;;;;;;3.92;2.85;;;;;;;22.13;55.08;99176.34;4853285;29;20115;-94
2022/07/30 02:49:12;;;;;;;3.95;2.70;;;;;;;22.12;55.78;99190.38;4884789;29;20033;-94
2022/07/30 02:51:37;;;;;;;6.38;3.15;;;;;;;22.02;55.83;99182.66;4854340;29;20029;-94
2022/07/30 02:54:03;;;;;;;3.37;2.80;;;;;;;22.18;56.09;99205.44;4854537;29;20480;-94
2022/07/30 02:56:28;;;;;;;4.68;3.20;;;;;;;21.91;56.19;99168.66;4869195;29;20040;-93
2022/07/30 02:58:54;;;;;;;6.10;3.53;;;;;;;22.08;55.99;99194.97;4870065;29;20039;-94
2022/07/30 03:01:20;;;;;;;3.75;3.20;;;;;;;22.00;56.43;99183.81;4854910;29;20029;-94
2022/07/30 03:03:46;;;;;;;3.67;3.13;;;;;;;21.90;56.98;99189.00;4887040;29;20028;-95
2022/07/30 03:06:14;;;;;;;5.68;3.28;;;;;;;21.84;56.63;99199.41;4856269;29;20479;-95
2022/07/30 03:08:44;;;;;;;3.78;2.72;;;;;;;21.64;57.66;99192.97;4857230;29;20068;-95
2022/07/30 03:11:10;;;;;;;5.15;3.47;;;;;;;21.79;56.81;99210.66;4888977;29;20028;-94
2022/07/30 03:13:35;;;;;;;3.92;3.33;;;;;;;21.73;56.64;99212.03;4857111;29;20060;-94
2022/07/30 03:16:01;;;;;;;5.35;3.20;;;;;;;21.62;56.85;99202.69;4871844;29;20029;-95
2022/07/30 03:18:27;;;;;;;5.38;3.45;;;;;;;21.56;57.11;99210.34;4873420;29;20513;-95
2022/07/30 03:20:53;;;;;;;4.32;3.22;;;;;;;21.61;56.99;99225.75;4888524;29;20443;-94
2022/07/30 03:23:19;;;;;;;8.43;3.53;;;;;;;21.49;57.28;99221.09;4857044;29;20035;-93
2022/07/30 03:25:55;;;;;;;4.50;3.63;;;;;;;21.47;57.64;99207.72;4856846;29;20092;-94
2022/07/30 03:28:21;;;;;;;4.00;2.92;;;;;;;21.50;57.97;99220.75;4887788;29;20043;-93
2022/07/30 03:30:47;;;;;;;6.93;3.30;;;;;;;21.36;58.36;99218.34;4872223;29;20029;-95
2022/07/30 03:33:12;;;;;;;4.82;3.20;;;;;;;21.31;57.71;99212.28;4856879;29;20039;-94
2022/07/30 03:35:38;;;;;;;5.43;3.42;;;;;;;21.42;57.51;99209.91;4870691;29;20029;-94
2022/07/30 03:38:04;;;;;;;5.43;3.72;;;;;;;21.59;57.66;99223.34;4855905;29;20400;-93
2022/07/30 03:40:29;;;;;;;3.97;3.15;;;;;;;21.31;58.63;99193.94;4856228;29;20036;-94
2022/07/30 03:42:55;;;;;;;4.47;3.10;;;;;;;21.45;57.88;99211.97;4856725;29;20033;-94
2022/07/30 03:45:20;;;;;;;8.23;3.78;;;;;;;21.50;57.91;99217.19;4871224;29;20028;-93
2022/07/30 03:47:46;;;;;;;5.53;3.78;;;;;;;21.52;57.03;99204.78;4856733;29;20032;-94
2022/07/30 03:50:12;;;;;;;3.85;3.20;;;;;;;21.67;57.39;99216.16;4871918;29;20047;-94
2022/07/30 03:52:41;;;;;;;7.70;3.40;;;;;;;21.64;57.66;99216.84;4872768;29;20039;-94
2022/07/30 03:55:08;;;;;;;10.75;3.92;;;;;;;21.71;57.38;99233.50;4856729;29;20455;-94
2022/07/30 03:57:34;;;;;;;5.22;3.30;;;;;;;21.63;57.24;99213.31;4871575;29;20095;-93
2022/07/30 04:00:00;;;;;;;7.47;3.95;;;;;;;21.61;57.04;99203.84;4856569;29;20032;-93
2022/07/30 04:02:26;;;;;;;5.10;3.78;;;;;;;21.69;57.62;99211.13;4855714;29;20065;-93
2022/07/30 04:04:52;;;;;;;7.10;4.13;;;;;;;21.72;57.48;99218.63;4855832;29;20369;-93
2022/07/30 04:07:17;;;;;;;6.07;3.72;;;;;;;21.67;57.25;99213.41;4855138;29;20166;-93
2022/07/30 04:09:43;;;;;;;4.90;3.28;;;;;;;21.65;57.62;99215.69;4855916;29;20032;-93
2022/07/30 04:12:08;;;;;;;6.10;3.50;;;;;;;21.57;57.94;99214.69;4855708;29;20076;-94
2022/07/30 04:14:43;;;;;;;4.25;3.28;;;;;;;21.66;57.89;99225.50;4854922;29;20467;-93
2022/07/30 04:17:23;;;;;;;6.13;3.90;;;;;;;21.61;57.62;99223.81;4870434;29;20040;-94
2022/07/30 04:19:55;;;;;;;4.25;3.17;;;;;;;21.59;57.76;99224.16;4856915;29;20089;-96
2022/07/30 04:22:23;;;;;;;4.60;3.17;;;;;;;21.69;57.52;99227.56;4854977;29;20511;-93
2022/07/30 04:24:48;;;;;;;7.90;3.58;;;;;;;21.65;58.15;99224.72;4870330;29;20036;-95
2022/07/30 04:27:14;;;;;;;7.03;3.70;;;;;;;21.85;57.70;99227.63;4869558;29;20472;-95
2022/07/30 04:29:40;;;;;;;6.35;3.88;;;;;;;21.75;57.23;99207.00;4855721;29;20057;-92
2022/07/30 04:32:07;;;;;;;6.35;4.20;;;;;;;21.91;56.81;99224.28;4855502;29;20033;-95
2022/07/30 04:34:32;;;;;;;6.93;3.70;;;;;;;21.99;56.23;99215.13;4869872;29;20033;-95
2022/07/30 04:36:58;;;;;;;6.55;4.30;;;;;;;22.09;56.58;99224.00;4870591;29;20032;-96
2022/07/30 04:39:23;;;;;;;9.20;4.43;;;;;;;22.08;56.50;99211.44;4855939;29;20024;-95
2022/07/30 04:41:49;;;;;;;10.57;5.18;;;;;;;22.07;56.33;99205.16;4870919;29;20067;-94
2022/07/30 04:44:15;;;;;;;10.45;4.85;;;;;;;22.23;57.01;99210.72;4855918;29;20217;-94
2022/07/30 04:46:40;;;;;;;5.90;4.32;;;;;;;22.26;56.73;99212.75;4887135;29;20475;-94
2022/07/30 04:49:06;;;;;;;9.40;4.80;;;;;;;22.24;56.58;99197.78;4855860;29;20032;-95
2022/07/30 04:51:32;;;;;;;7.07;4.32;;;;;;;22.36;56.87;99197.72;4871389;29;20484;-94
2022/07/30 04:53:58;;;;;;;10.32;4.38;;;;;;;22.39;55.93;99197.00;4870076;29;20032;-94
2022/07/30 04:56:24;;;;;;;5.97;3.97;;;;;;;22.52;55.38;99201.28;4856526;29;20037;-95
2022/07/30 04:58:49;;;;;;;8.13;4.18;;;;;;;22.61;55.58;99203.84;4870915;29;20056;-95
2022/07/30 05:01:19;;;;;;;8.13;4.65;;;;;;;22.66;55.17;99195.38;4856082;29;20028;-95
2022/07/30 05:03:45;;;;;;;5.80;3.85;;;;;;;22.75;54.78;99185.00;4885634;29;20036;-95
2022/07/30 05:06:11;;;;;;;6.30;4.10;;;;;;;22.84;54.42;99192.25;4886862;29;20032;-95
2022/07/30 05:08:37;;;;;;;9.90;4.20;;;;;;;23.09;54.76;99212.13;4856481;29;20107;-96
2022/07/30 05:11:02;;;;;;;5.57;4.28;;;;;;;23.04;54.44;99202.19;4855176;29;20028;-96
2022/07/30 05:13:28;;;;;;;6.40;4.75;;;;;;;23.28;53.65;99212.16;4855406;29;20514;-95
2022/07/30 05:15:54;;;;;;;10.07;5.15;;;;;;;23.29;53.13;99202.78;4871591;29;20547;-94
2022/07/30 05:18:19;;;;;;;10.07;4.88;;;;;;;23.42;52.62;99217.19;4870141;29;20036;-95
2022/07/30 05:20:45;;;;;;;10.60;5.07;;;;;;;23.55;52.77;99212.34;4854336;29;20104;-94
2022/07/30 05:23:10;;;;;;;12.80;4.88;;;;;;;23.68;53.28;99208.34;4870762;29;20028;-94
2022/07/30 05:28:58;;;;;;;7.75;4.70;;;;;;;23.90;52.27;99220.59;4901506;29;20043;-96
2022/07/30 05:31:24;;;;;;;8.10;4.97;;;;;;;24.11;52.59;99227.69;4854384;29;20072;-95
2022/07/30 05:33:49;;;;;;;8.70;5.10;;;;;;;24.12;51.46;99224.59;4854703;29;20032;-95
2022/07/30 05:36:15;;;;;;;8.70;4.75;;;;;;;24.26;51.12;99232.31;4869284;29;20092;-95
2022/07/30 05:38:43;;;;;;;7.30;5.10;;;;;;;24.37;49.70;99227.81;4854321;29;20056;-95
2022/07/30 05:41:09;;;;;;;8.95;4.20;;;;;;;24.45;49.54;99222.44;4853484;29;20116;-95
2022/07/30 05:43:34;;;;;;;5.82;3.95;;;;;;;24.58;48.85;99218.38;4854288;29;20036;-95
2022/07/30 05:46:00;;;;;;;7.68;4.45;;;;;;;24.77;48.35;99212.00;4853244;29;20044;-96
2022/07/30 05:48:27;;;;;;;7.63;4.72;;;;;;;24.92;48.74;99218.53;4884866;29;20411;-95
2022/07/30 05:50:53;;;;;;;7.95;4.78;;;;;;;25.13;48.55;99231.88;4853384;29;20033;-95
2022/07/30 05:53:18;;;;;;;7.15;4.57;;;;;;;25.20;47.94;99215.47;4884409;29;20100;-95
2022/07/30 05:55:44;;;;;;;5.50;3.58;;;;;;;25.27;46.33;99217.53;4868548;29;20488;-94
2022/07/30 05:58:09;;;;;;;5.07;3.60;;;;;;;25.44;44.90;99228.03;4868780;29;20033;-95
2022/07/30 06:00:35;;;;;;;5.82;3.92;;;;;;;25.41;43.71;99218.53;4868734;29;20032;-93
2022/07/30 06:03:01;;;;;;;5.97;3.85;;;;;;;25.54;43.10;99207.28;4853746;29;20033;-94
2022/07/30 06:05:31;;;;;;;6.75;3.83;;;;;;;25.76;43.14;99216.66;4852885;29;20025;-93
2022/07/30 06:07:56;;;;;;;4.30;3.35;;;;;;;25.83;42.71;99221.47;4862292;29;20040;-91
2022/07/30 06:10:22;;;;;;;9.57;4.45;;;;;;;25.95;41.92;99210.22;4864833;29;20036;-90
2022/07/30 06:12:50;;;;;;;4.57;3.40;;;;;;;26.11;41.99;99218.28;4851351;29;20033;-94
2022/07/30 06:15:16;;;;;;;5.35;3.83;;;;;;;26.32;41.92;99223.25;4850966;29;20040;-95
2022/07/30 06:17:45;;;;;;;5.50;3.20;;;;;;;26.32;41.86;99215.75;4850164;29;20041;-90
2022/07/30 06:20:11;;;;;;;6.10;3.60;;;;;;;26.44;41.57;99209.19;4863375;29;20423;-89
2022/07/30 06:22:39;;;;;;;6.30;3.47;;;;;;;26.56;40.96;99210.84;4879157;29;20028;-94
2022/07/30 06:25:06;;;;;;;6.32;3.97;;;;;;;26.61;41.49;99205.81;4851354;29;20084;-96
2022/07/30 06:27:32;;;;;;;4.55;2.92;;;;;;;26.77;41.08;99210.28;4850684;29;20037;-94
2022/07/30 06:30:07;;;;;;;4.70;3.20;;;;;;;26.77;40.77;99190.94;4851975;29;20400;-94
2022/07/30 06:32:33;;;;;;;5.72;3.38;;;;;;;26.90;40.49;99195.00;4865718;29;20490;-95
2022/07/30 06:34:59;;;;;;;4.05;2.90;;;;;;;27.04;40.60;99197.09;4849787;29;20480;-94
2022/07/30 06:37:24;;;;;;;8.00;2.95;;;;;;;27.11;40.40;99193.56;4852506;29;20041;-95
2022/07/30 06:39:50;;;;;;;7.03;3.88;;;;;;;27.18;39.43;99201.91;4853853;29;20037;-94
2022/07/30 06:42:15;;;;;;;4.60;3.10;;;;;;;27.40;39.65;99200.09;4854165;29;20085;-94
2022/07/30 06:44:41;;;;;;;3.72;2.97;;;;;;;27.38;39.68;99183.09;4853180;29;20575;-95
2022/07/30 06:47:07;;;;;;;5.00;3.13;;;;;;;27.48;39.38;99187.13;4853363;29;20500;-95
2022/07/30 06:49:35;;;;;;;6.00;2.83;;;;;;;27.70;39.17;99191.56;4854076;29;20072;-94
2022/07/30 06:52:01;;;;;;;3.15;2.67;;;;;;;27.76;38.14;99184.47;4853492;29;20129;-94
2022/07/30 06:54:27;;;;;;;3.33;2.67;;;;;;;27.89;37.94;99184.97;4853016;29;20112;-93
2022/07/30 06:56:52;;;;;;;4.28;2.92;;;;;;;27.98;37.93;99192.88;4853768;29;20118;-93
2022/07/30 06:59:18;;;;;;;3.22;2.40;;;;;;;28.13;37.16;99190.94;4853399;29;20067;-93
2022/07/30 07:01:43;;;;;;;4.55;2.80;;;;;;;28.15;37.22;99178.28;4853119;29;20418;-93
2022/07/30 07:04:09;;;;;;;3.97;2.38;;;;;;;28.32;36.11;99184.25;4853140;29;20105;-95
2022/07/30 07:06:35;;;;;;;4.50;2.33;;;;;;;28.28;34.46;99169.63;4854460;29;20139;-94
2022/07/30 07:09:00;;;;;;;5.28;2.85;;;;;;;28.44;35.25;99172.03;4852758;29;20033;-94
2022/07/30 07:11:26;;;;;;;4.28;2.55;;;;;;;28.59;34.97;99171.66;4868156;29;20036;-94
2022/07/30 07:13:51;;;;;;;8.60;3.40;;;;;;;28.69;35.09;99178.38;4851961;29;20036;-94
2022/07/30 07:16:20;;;;;;;4.32;3.90;;;;;;;28.86;34.72;99181.56;4867513;29;20408;-94
2022/07/30 07:18:46;;;;;;;4.38;2.70;;;;;;;28.99;34.39;99178.00;4863957;29;20404;-95
2022/07/30 07:21:13;;;;;;;4.90;2.33;;;;;;;29.05;33.26;99174.81;4836862;29;20028;-94
2022/07/30 07:23:38;;;;;;;3.17;2.05;;;;;;;29.13;32.77;99163.31;4837274;29;20039;-93
2022/07/30 07:26:04;;;;;;;3.83;2.50;;;;;;;29.23;32.91;99169.25;4853034;29;20025;-95
2022/07/30 07:28:29;;;;;;;2.60;2.10;;;;;;;29.29;33.07;99162.91;4852620;29;20036;-93
2022/07/30 07:30:55;;;;;;;3.70;2.35;;;;;;;29.46;32.72;99174.34;4837714;29;20029;-93
2022/07/30 07:33:20;;;;;;;2.47;1.90;;;;;;;29.53;32.00;99166.81;4853005;29;20025;-92
2022/07/30 07:35:46;;;;;;;3.10;2.30;;;;;;;29.66;32.13;99163.59;4868556;29;20506;-93
2022/07/30 07:38:11;;;;;;;2.90;2.25;;;;;;;29.66;32.61;99152.47;4852704;29;20072;-93
2022/07/30 07:40:37;;;;;;;2.53;2.03;;;;;;;29.80;32.53;99155.19;4836742;29;20051;-92
2022/07/30 07:43:04;;;;;;;3.13;2.17;;;;;;;29.94;32.04;99160.69;4852181;29;20029;-93
2022/07/30 07:45:33;;;;;;;2.95;2.30;;;;;;;30.11;32.26;99169.31;4851835;29;20044;-93
2022/07/30 07:47:58;;;;;;;2.95;2.50;;;;;;;30.12;31.91;99157.81;4836634;29;20033;-94
2022/07/30 07:50:24;;;;;;;3.17;2.30;;;;;;;30.14;31.52;99144.31;4850180;29;20033;-92
2022/07/30 07:52:49;;;;;;;6.80;2.63;;;;;;;30.30;31.53;99159.69;4872987;29;20504;-93
2022/07/30 07:55:15;;;;;;;3.55;2.10;;;;;;;30.35;30.48;99159.28;4885917;29;20168;-93
2022/07/30 07:57:41;;;;;;;2.45;2.08;;;;;;;30.45;30.73;99161.19;4851531;29;20040;-94
2022/07/30 08:00:08;;;;;;;2.88;2.00;;;;;;;30.52;29.31;99160.34;4881689;29;20065;-92
2022/07/30 08:02:34;;;;;;;2.70;2.17;;;;;;;30.57;29.81;99149.59;4852890;29;20036;-94
2022/07/30 08:04:59;;;;;;;6.45;2.20;;;;;;;30.69;28.59;99161.38;4839542;29;20119;-96
2022/07/30 08:07:25;;;;;;;4.18;2.47;;;;;;;30.69;29.17;99147.50;4855151;29;20052;-95
2022/07/30 08:09:54;;;;;;;2.85;2.00;;;;;;;30.85;29.57;99161.66;4870276;29;20033;-95
2022/07/30 08:12:19;;;;;;;2.65;2.10;;;;;;;30.87;29.86;99148.16;4869435;29;20040;-94
2022/07/30 08:14:45;;;;;;;4.22;1.90;;;;;;;30.97;28.72;99146.47;4837616;29;20040;-95
2022/07/30 08:17:11;;;;;;;3.35;2.22;;;;;;;30.97;29.16;99144.47;4853483;29;20075;-94
2022/07/30 08:19:36;;;;;;;3.28;1.90;;;;;;;31.00;28.83;99153.97;4853949;29;20037;-94
2022/07/30 08:22:02;;;;;;;4.07;2.75;;;;;;;31.10;28.63;99167.00;4838602;29;20033;-94
2022/07/30 08:24:28;;;;;;;5.80;2.00;;;;;;;31.17;28.43;99150.25;4869301;29;20033;-96
2022/07/30 08:26:53;;;;;;;3.70;2.08;;;;;;;31.20;28.75;99149.41;4852080;29;20040;-94
2022/07/30 08:29:19;;;;;;;3.13;2.13;;;;;;;31.29;28.35;99137.00;4839421;29;20033;-95
2022/07/30 08:31:45;;;;;;;2.50;1.90;;;;;;;31.37;29.16;99142.06;4854704;29;20029;-96
2022/07/30 08:34:58;;;;;;;2.65;1.92;;;;;;;31.52;28.06;99147.47;4853909;29;20064;-95
2022/07/30 08:37:24;;;;;;;2.58;2.10;;;;;;;31.43;28.00;99131.25;4845388;29;20037;-94
2022/07/30 08:39:52;;;;;;;3.22;2.20;;;;;;;31.58;29.02;99143.81;4851375;29;20040;-95
2022/07/30 08:42:18;;;;;;;2.60;1.88;;;;;;;31.70;28.05;99134.13;4852365;29;20041;-94
2022/07/30 08:44:44;;;;;;;1.98;1.67;;;;;;;31.75;27.75;99118.94;4851858;29;20025;-94
2022/07/30 08:47:13;;;;;;;2.30;1.90;;;;;;;31.81;28.17;99126.44;4851691;29;20033;-94
2022/07/30 08:49:39;;;;;;;4.18;1.95;;;;;;;31.86;27.33;99127.97;4853196;29;20029;-95
2022/07/30 08:52:07;;;;;;;2.50;1.90;;;;;;;31.94;27.52;99132.22;4849618;29;20025;-92
2022/07/30 08:54:33;;;;;;;2.08;1.85;;;;;;;31.76;27.22;99118.53;4851427;29;20021;-92
2022/07/30 08:56:59;;;;;;;2.45;1.85;;;;;;;31.90;26.90;99116.78;4849859;29;20060;-92
2022/07/30 08:59:24;;;;;;;2.35;1.60;;;;;;;31.93;27.57;99119.50;4864708;29;20399;-91
2022/07/30 09:01:50;;;;;;;3.03;1.95;;;;;;;32.02;27.37;99119.00;4864841;29;20115;-92
2022/07/30 09:04:17;;;;;;;2.10;1.70;;;;;;;32.06;27.45;99108.59;4881528;29;20029;-91
2022/07/30 09:06:43;;;;;;;3.25;1.80;;;;;;;32.16;25.23;99118.00;4898948;29;20514;-91
2022/07/30 09:09:10;;;;;;;2.15;1.73;;;;;;;32.18;24.96;99127.50;4869974;29;20374;-92
2022/07/30 09:11:35;;;;;;;2.20;1.52;;;;;;;32.12;25.61;99104.13;4867636;29;20025;-93
2022/07/30 09:14:10;;;;;;;2.53;1.45;;;;;;;32.33;25.69;99124.50;4868595;29;20059;-92
2022/07/30 09:16:35;;;;;;;4.63;1.70;;;;;;;32.21;25.49;99098.81;4870612;29;20039;-91
2022/07/30 09:19:18;;;;;;;3.63;1.70;;;;;;;32.21;25.96;99106.38;4900407;29;20399;-92
2022/07/30 09:21:57;;;;;;;2.72;1.70;;;;;;;32.28;26.30;99114.63;4869211;29;20028;-92
2022/07/30 09:24:22;;;;;;;2.40;1.63;;;;;;;32.43;26.29;99120.75;4853079;29;20025;-91
2022/07/30 09:26:55;;;;;;;2.95;1.80;;;;;;;32.38;26.09;99096.16;4885404;29;20480;-90
2022/07/30 09:29:22;;;;;;;2.85;1.58;;;;;;;32.47;26.51;99099.19;4868362;29;20443;-92
2022/07/30 09:32:01;;;;;;;3.13;1.90;;;;;;;32.50;25.63;99080.81;4852777;29;20028;-89
2022/07/30 09:34:30;;;;;;;3.28;1.90;;;;;;;32.55;25.08;99105.47;4867644;29;20468;-92
2022/07/30 09:36:57;;;;;;;2.88;1.70;;;;;;;32.44;24.62;99074.97;4882992;29;20100;-91
2022/07/30 09:39:29;;;;;;;2.50;1.83;;;;;;;32.69;25.05;99098.84;4864422;29;20504;-91
2022/07/30 09:41:55;;;;;;;2.63;1.60;;;;;;;32.74;24.12;99092.78;4880150;29;20025;-90
2022/07/30 09:44:28;;;;;;;3.47;2.20;;;;;;;32.56;24.22;99066.03;4849792;29;20037;-92
2022/07/30 09:46:54;;;;;;;2.15;1.52;;;;;;;32.77;24.82;99069.63;4852437;29;20097;-91
2022/07/30 09:49:21;;;;;;;3.25;1.80;;;;;;;32.84;24.86;99063.91;4878743;29;20033;-92
2022/07/30 09:51:50;;;;;;;2.30;1.85;;;;;;;33.01;24.70;99067.56;4881025;29;20468;-91
2022/07/30 09:54:16;;;;;;;1.95;1.65;;;;;;;33.07;24.19;99057.47;4880401;29;20397;-92
2022/07/30 09:56:47;;;;;;;3.65;1.65;;;;;;;33.16;24.02;99071.69;4864575;29;20048;-91
2022/07/30 09:59:40;;;;;;;4.57;2.13;;;;;;;33.16;23.95;99045.75;4868893;29;20057;-92
2022/07/30 10:02:05;;;;;;;3.75;2.20;;;;;;;33.32;24.57;99061.78;4879019;29;20055;-90
2022/07/30 10:04:31;;;;;;;2.58;1.63;;;;;;;33.52;22.85;99073.72;4864612;29;20476;-95
2022/07/30 10:06:57;;;;;;;2.92;1.70;;;;;;;33.46;23.19;99058.69;4864854;29;20531;-92
2022/07/30 10:09:30;;;;;;;2.10;1.65;;;;;;;33.65;23.24;99075.88;4880020;29;20033;-91
2022/07/30 10:11:57;;;;;;;1.92;1.60;;;;;;;33.63;21.24;99064.34;4878938;29;20063;-93
2022/07/30 10:14:27;;;;;;;2.35;1.77;;;;;;;33.53;22.44;99049.38;4876937;29;20033;-91
2022/07/30 10:16:52;;;;;;;2.70;1.70;;;;;;;33.64;23.02;99063.94;4846159;29;20030;-93
2022/07/30 10:19:18;;;;;;;2.05;1.58;;;;;;;33.66;22.34;99053.09;4847125;29;20408;-91
2022/07/30 10:21:43;;;;;;;2.30;1.70;;;;;;;33.59;22.34;99048.41;4864155;29;20093;-92
2022/07/30 10:24:09;;;;;;;2.85;1.88;;;;;;;33.64;22.76;99040.78;4834075;29;20029;-92
2022/07/30 10:26:35;;;;;;;2.25;1.77;;;;;;;33.66;22.62;99036.34;4848930;29;20032;-92
2022/07/30 10:29:00;;;;;;;2.08;1.67;;;;;;;33.54;22.24;99028.63;4848967;29;20417;-92
2022/07/30 10:31:26;;;;;;;2.42;1.85;;;;;;;33.71;23.48;99035.03;4833658;29;20033;-92
2022/07/30 10:33:52;;;;;;;4.05;1.92;;;;;;;33.71;22.96;99027.44;4850889;29;20077;-91
2022/07/30 10:36:20;;;;;;;2.70;2.00;;;;;;;33.75;22.60;99021.78;4868013;29;20036;-91
2022/07/30 10:38:45;;;;;;;2.53;1.60;;;;;;;33.82;22.54;99021.59;4861189;29;20129;-94
2022/07/30 10:41:35;;;;;;;2.53;1.77;;;;;;;33.98;22.23;99037.59;4847033;29;20404;-90
2022/07/30 10:44:03;;;;;;;2.05;1.60;;;;;;;34.10;22.76;99027.75;4861550;29;20468;-92
2022/07/30 10:46:37;;;;;;;2.50;1.52;;;;;;;34.21;22.96;99028.28;4865107;29;20041;-93
2022/07/30 10:49:14;;;;;;;2.13;1.55;;;;;;;34.13;22.87;99008.09;4850587;29;20044;-92
2022/07/30 10:51:47;;;;;;;3.03;1.90;;;;;;;34.16;22.40;99003.63;4846903;29;20037;-93
2022/07/30 10:54:34;;;;;;;2.80;2.13;;;;;;;34.21;22.38;99022.69;4848563;29;20044;-92
2022/07/30 10:57:03;;;;;;;2.72;2.10;;;;;;;34.24;23.12;99007.81;4865550;29;20039;-91
2022/07/30 10:59:28;;;;;;;2.80;2.17;;;;;;;34.19;22.29;98995.16;4846274;29;20025;-93
2022/07/30 11:01:57;;;;;;;3.13;1.70;;;;;;;34.18;22.37;99001.19;4831243;29;20022;-93
2022/07/30 11:04:26;;;;;;;3.13;1.85;;;;;;;34.33;22.62;99010.78;4863493;29;20089;-91
2022/07/30 11:06:52;;;;;;;3.25;2.00;;;;;;;34.32;22.89;98998.03;4864247;29;20044;-93
2022/07/30 11:09:36;;;;;;;3.03;2.15;;;;;;;34.53;22.65;99005.09;4878720;29;20029;-92
2022/07/30 11:12:03;;;;;;;3.47;1.90;;;;;;;34.53;22.42;99007.88;4880274;29;20021;-92
2022/07/30 11:14:47;;;;;;;2.85;1.95;;;;;;;34.53;22.44;99012.66;4864217;29;20108;-92
2022/07/30 11:17:16;;;;;;;3.05;2.00;;;;;;;34.57;22.18;98979.78;4879696;29;20088;-92
2022/07/30 11:20:07;;;;;;;5.32;2.75;;;;;;;34.80;22.03;98999.16;4864603;29;20029;-92
2022/07/30 11:22:40;;;;;;;2.15;1.92;;;;;;;34.86;22.22;98996.59;4880081;29;20128;-92
2022/07/30 11:25:09;;;;;;;2.45;2.13;;;;;;;34.86;22.30;98993.78;4881845;29;20036;-93
2022/07/30 11:27:49;;;;;;;2.40;1.73;;;;;;;34.91;21.77;98984.09;4882871;29;20566;-92
2022/07/30 11:30:14;;;;;;;3.05;2.15;;;;;;;35.00;21.57;99003.78;4867875;29;20025;-92
2022/07/30 11:32:40;;;;;;;3.65;1.98;;;;;;;34.92;21.66;98982.84;4883627;29;20137;-93
2022/07/30 11:35:24;;;;;;;2.92;2.20;;;;;;;35.08;21.75;98990.38;4852083;29;20419;-92
2022/07/30 11:38:14;;;;;;;4.35;2.20;;;;;;;35.12;21.71;99003.03;4888611;29;20116;-93
2022/07/30 11:40:48;;;;;;;4.90;3.10;;;;;;;35.17;22.06;98987.72;4886098;29;20029;-93
2022/07/30 11:43:40;;;;;;;2.42;1.80;;;;;;;35.13;20.99;98982.19;4884610;29;20028;-93